createdAt,value
2022-09-29T00:01:21.000Z,7.90
2022-09-29T00:03:49.490Z,9.10
2022-09-29T00:06:19.176Z,9.50
2022-09-29T00:08:48.244Z,7.40
2022-09-29T00:11:19.625Z,6.60
2022-09-29T00:13:48.731Z,7.10
2022-09-29T00:16:17.330Z,6.80
2022-09-29T00:18:45.903Z,6.30
2022-09-29T00:21:21.770Z,7.20
2022-09-29T00:23:50.922Z,6.40
2022-09-29T00:26:25.053Z,4.80
2022-09-29T00:28:57.209Z,6.30
2022-09-29T00:31:29.513Z,6.20
2022-09-29T00:33:58.792Z,7.20
2022-09-29T00:36:31.362Z,4.90
2022-09-29T00:38:59.865Z,5.90
2022-09-29T00:41:33.986Z,5.10
2022-09-29T00:44:04.711Z,4.90
2022-09-29T00:46:45.217Z,4.40
2022-09-29T00:50:10.357Z,5.20
2022-09-29T00:52:47.205Z,4.40
2022-09-29T00:55:35.372Z,4.20
2022-09-29T00:58:33.766Z,4.30
2022-09-29T01:01:02.477Z,4.60
2022-09-29T01:03:41.063Z,4.80
2022-09-29T01:06:19.522Z,4.80
2022-09-29T01:09:08.539Z,4.90
2022-09-29T01:11:37.334Z,3.90
2022-09-29T01:14:09.189Z,5.30
2022-09-29T01:16:42.351Z,5.40
2022-09-29T01:19:30.526Z,4.00
2022-09-29T01:22:27.120Z,3.90
2022-09-29T01:25:07.039Z,4.70
2022-09-29T01:27:52.506Z,4.70
2022-09-29T01:30:46.468Z,5.20
2022-09-29T01:33:36.760Z,6.00
2022-09-29T01:36:47.960Z,10.40
2022-09-29T01:39:55.000Z,8.60
2022-09-29T01:42:41.126Z,10.30
2022-09-29T01:45:35.138Z,8.50
2022-09-29T01:48:13.817Z,10.20
2022-09-29T01:50:49.369Z,10.70
2022-09-29T01:53:30.694Z,8.50
2022-09-29T01:56:04.363Z,8.30
2022-09-29T01:58:58.126Z,8.30
2022-09-29T02:01:35.206Z,8.00
2022-09-29T02:04:14.132Z,8.40
2022-09-29T02:06:52.804Z,6.00
2022-09-29T02:09:30.070Z,8.40
2022-09-29T02:12:02.008Z,6.50
2022-09-29T02:14:38.343Z,6.50
2022-09-29T02:17:20.262Z,6.70
2022-09-29T02:19:52.245Z,7.40
2022-09-29T02:22:21.438Z,6.70
2022-09-29T02:24:56.268Z,7.80
2022-09-29T02:27:27.093Z,8.80
2022-09-29T02:29:59.477Z,8.20
2022-09-29T02:32:30.294Z,8.60
2022-09-29T02:34:58.670Z,7.30
2022-09-29T02:38:06.677Z,9.30
2022-09-29T02:40:54.749Z,8.90
2022-09-29T02:43:47.798Z,10.10
2022-09-29T02:46:31.205Z,8.50
2022-09-29T02:49:39.931Z,7.50
2022-09-29T02:52:33.403Z,9.10
2022-09-29T02:55:44.378Z,9.60
2022-09-29T02:58:18.812Z,9.20
2022-09-29T03:00:48.339Z,10.10
2022-09-29T03:05:45.462Z,10.30
2022-09-29T03:08:13.963Z,8.50
2022-09-29T03:10:42.548Z,10.00
2022-09-29T03:13:11.008Z,10.70
2022-09-29T03:15:39.509Z,9.20
2022-09-29T03:18:10.185Z,8.40
2022-09-29T03:20:39.033Z,10.10
2022-09-29T03:23:07.511Z,12.40
2022-09-29T03:25:35.889Z,10.00
2022-09-29T03:28:04.473Z,9.00
2022-09-29T03:30:33.965Z,9.00
2022-09-29T03:33:02.356Z,11.90
2022-09-29T03:35:31.101Z,8.30
2022-09-29T03:40:29.517Z,7.80
2022-09-29T03:42:58.002Z,8.40
2022-09-29T03:45:27.314Z,9.70
2022-09-29T03:50:23.872Z,10.60
2022-09-29T03:52:52.301Z,12.40
2022-09-29T03:55:20.551Z,8.00
2022-09-29T03:57:48.986Z,9.60
2022-09-29T04:00:17.527Z,8.00
2022-09-29T04:02:45.893Z,9.20
2022-09-29T04:07:44.316Z,8.30
2022-09-29T04:10:12.730Z,10.60
2022-09-29T04:12:41.300Z,9.40
2022-09-29T04:15:10.616Z,10.70
2022-09-29T04:20:08.365Z,8.90
2022-09-29T04:25:05.280Z,9.80
2022-09-29T04:27:34.057Z,9.00
2022-09-29T04:30:02.572Z,10.40
2022-09-29T04:32:30.956Z,10.00
2022-09-29T04:34:59.364Z,8.20
2022-09-29T04:37:28.312Z,8.30
2022-09-29T04:39:56.772Z,7.20
2022-09-29T04:42:25.338Z,8.50
2022-09-29T04:44:54.881Z,7.80
2022-09-29T04:47:23.278Z,10.60
2022-09-29T04:49:51.755Z,9.70
2022-09-29T04:52:20.372Z,7.90
2022-09-29T04:54:52.006Z,9.90
2022-09-29T04:57:20.346Z,11.00
2022-09-29T04:59:51.915Z,8.20
2022-09-29T05:02:20.354Z,12.20
2022-09-29T05:04:49.042Z,10.80
2022-09-29T05:07:17.389Z,10.30
2022-09-29T05:09:45.766Z,12.30
2022-09-29T05:12:14.873Z,11.10
2022-09-29T05:14:43.332Z,10.80
2022-09-29T05:17:11.794Z,9.70
2022-09-29T05:19:40.225Z,10.60
2022-09-29T05:22:08.625Z,10.10
2022-09-29T05:24:42.881Z,9.60
2022-09-29T05:27:11.222Z,9.20
2022-09-29T05:29:39.557Z,10.00
2022-09-29T05:32:07.987Z,10.40
2022-09-29T05:34:36.602Z,9.00
2022-09-29T05:37:05.063Z,8.50
2022-09-29T05:39:34.787Z,10.20
2022-09-29T05:44:38.790Z,11.90
2022-09-29T05:47:07.249Z,10.60
2022-09-29T05:49:37.021Z,10.70
2022-09-29T05:52:05.923Z,9.20
2022-09-29T05:54:43.026Z,9.70
2022-09-29T05:57:12.052Z,12.20
2022-09-29T05:59:40.406Z,9.20
2022-09-29T06:02:10.171Z,10.00
2022-09-29T06:04:40.774Z,10.70
2022-09-29T06:07:09.451Z,10.70
2022-09-29T06:09:37.828Z,9.70
2022-09-29T06:12:06.423Z,12.20
2022-09-29T06:14:34.936Z,12.80
2022-09-29T06:17:03.396Z,10.10
2022-09-29T06:19:31.802Z,11.10
2022-09-29T06:22:00.237Z,10.40
2022-09-29T06:24:28.572Z,8.60
2022-09-29T06:26:57.006Z,10.20
2022-09-29T06:29:28.644Z,9.60
2022-09-29T06:31:57.055Z,10.70
2022-09-29T06:34:25.741Z,10.10
2022-09-29T06:37:12.548Z,10.70
2022-09-29T06:39:40.997Z,15.20
2022-09-29T06:42:09.421Z,9.90
2022-09-29T06:44:37.801Z,11.00
2022-09-29T06:47:06.150Z,12.50
2022-09-29T06:49:34.546Z,10.40
2022-09-29T06:52:18.707Z,10.60
2022-09-29T06:54:49.094Z,10.80
2022-09-29T06:57:19.243Z,9.70
2022-09-29T06:59:48.575Z,11.40
2022-09-29T07:02:17.754Z,11.10
2022-09-29T07:04:48.250Z,9.20
2022-09-29T07:07:16.908Z,9.20
2022-09-29T07:09:45.393Z,9.30
2022-09-29T07:12:13.868Z,10.80
2022-09-29T07:14:42.216Z,8.80
2022-09-29T07:17:10.625Z,8.90
2022-09-29T07:19:39.366Z,9.30
2022-09-29T07:22:09.899Z,10.30
2022-09-29T07:24:38.305Z,9.50
2022-09-29T07:27:08.201Z,9.60
2022-09-29T07:29:38.420Z,9.20
2022-09-29T07:32:08.568Z,10.90
2022-09-29T07:34:44.516Z,10.50
2022-09-29T07:37:12.853Z,8.30
2022-09-29T07:39:41.250Z,8.60
2022-09-29T07:42:09.831Z,9.50
2022-09-29T07:44:38.352Z,9.10
2022-09-29T07:47:07.187Z,8.90
2022-09-29T07:49:36.160Z,8.80
2022-09-29T07:54:34.166Z,9.60
2022-09-29T07:57:04.173Z,8.40
2022-09-29T07:59:32.648Z,8.40
2022-09-29T08:02:02.903Z,8.60
2022-09-29T08:04:31.568Z,9.20
2022-09-29T08:07:00.834Z,9.80
2022-09-29T08:09:38.339Z,11.20
2022-09-29T08:12:20.492Z,12.00
2022-09-29T08:14:49.654Z,10.30
2022-09-29T08:17:18.010Z,12.20
2022-09-29T08:19:46.441Z,10.60
2022-09-29T08:22:14.981Z,10.10
2022-09-29T08:24:43.545Z,8.20
2022-09-29T08:27:18.629Z,10.70
2022-09-29T08:29:47.631Z,10.50
2022-09-29T08:32:16.027Z,9.50
2022-09-29T08:34:44.460Z,9.90
2022-09-29T08:37:13.856Z,8.60
2022-09-29T08:39:42.761Z,8.50
2022-09-29T08:42:48.651Z,8.90
2022-09-29T08:45:58.617Z,8.10
2022-09-29T08:48:36.028Z,10.40
2022-09-29T08:51:24.609Z,7.90
2022-09-29T08:54:03.116Z,8.80
2022-09-29T08:56:34.134Z,9.40
2022-09-29T08:59:02.750Z,9.30
2022-09-29T09:01:38.134Z,8.80
2022-09-29T09:04:15.903Z,7.80
2022-09-29T09:07:14.499Z,9.70
2022-09-29T09:09:51.927Z,7.50
2022-09-29T09:12:47.367Z,7.80
2022-09-29T09:16:01.447Z,10.20
2022-09-29T09:18:59.504Z,8.30
2022-09-29T09:21:44.773Z,7.40
2022-09-29T09:24:48.600Z,8.50
2022-09-29T09:27:25.850Z,10.00
2022-09-29T09:30:14.888Z,7.90
2022-09-29T09:32:54.654Z,11.40
2022-09-29T09:35:56.992Z,10.20
2022-09-29T09:38:44.786Z,7.80
2022-09-29T09:41:20.079Z,8.30
2022-09-29T09:44:06.848Z,9.70
2022-09-29T09:46:45.621Z,9.20
2022-09-29T09:49:23.825Z,7.80
2022-09-29T09:51:58.502Z,6.90
2022-09-29T09:54:41.112Z,8.30
2022-09-29T09:57:28.109Z,6.00
2022-09-29T10:00:17.517Z,5.30
2022-09-29T10:02:50.166Z,6.00
2022-09-29T10:05:24.321Z,6.20
2022-09-29T10:07:54.172Z,7.80
2022-09-29T10:10:26.345Z,6.80
2022-09-29T10:13:33.015Z,5.40
2022-09-29T10:16:24.102Z,5.30
2022-09-29T10:18:52.973Z,7.40
2022-09-29T10:21:37.406Z,6.40
2022-09-29T10:24:21.507Z,7.20
2022-09-29T10:26:53.267Z,7.30
2022-09-29T10:29:39.381Z,6.50
2022-09-29T10:32:17.446Z,7.20
2022-09-29T10:34:57.517Z,7.90
2022-09-29T10:37:39.115Z,9.20
2022-09-29T10:40:13.561Z,8.00
2022-09-29T10:42:48.485Z,9.90
2022-09-29T10:45:19.021Z,6.80
2022-09-29T10:48:00.684Z,7.40
2022-09-29T10:50:37.714Z,6.60
2022-09-29T10:53:24.827Z,7.30
2022-09-29T10:55:56.978Z,7.10
2022-09-29T10:58:57.594Z,8.00
2022-09-29T11:01:35.960Z,7.40
2022-09-29T11:04:26.005Z,9.10
2022-09-29T11:06:54.805Z,10.40
2022-09-29T11:09:23.183Z,10.10
2022-09-29T11:12:01.634Z,8.20
2022-09-29T11:14:37.432Z,8.00
2022-09-29T11:17:38.306Z,7.80
2022-09-29T11:20:15.171Z,7.30
2022-09-29T11:23:11.541Z,5.70
2022-09-29T11:25:57.871Z,5.20
2022-09-29T11:28:41.119Z,6.20
2022-09-29T11:31:50.033Z,5.40
2022-09-29T11:34:30.247Z,6.50
2022-09-29T11:37:39.623Z,6.20
2022-09-29T11:40:12.366Z,3.60
2022-09-29T11:43:06.714Z,4.50
2022-09-29T11:45:49.100Z,4.50
2022-09-29T11:49:04.846Z,4.10
2022-09-29T11:52:10.260Z,4.50
2022-09-29T11:55:02.761Z,6.50
2022-09-29T11:57:52.129Z,5.50
2022-09-29T12:00:32.498Z,7.00
2022-09-29T12:03:28.942Z,4.80
2022-09-29T12:07:00.945Z,7.20
2022-09-29T12:09:42.756Z,5.60
2022-09-29T12:15:35.116Z,5.80
2022-09-29T12:18:23.039Z,7.30
2022-09-29T12:20:55.397Z,6.60
2022-09-29T12:23:28.565Z,6.60
2022-09-29T12:26:06.008Z,6.50
2022-09-29T12:28:50.084Z,7.60
2022-09-29T12:31:35.734Z,6.50
2022-09-29T12:34:15.154Z,7.70
2022-09-29T12:37:27.424Z,6.50
2022-09-29T12:40:10.741Z,5.70
2022-09-29T12:42:57.621Z,5.70
2022-09-29T12:45:47.150Z,5.60
2022-09-29T12:48:39.921Z,6.00
2022-09-29T12:51:34.053Z,7.70
2022-09-29T12:54:30.011Z,6.60
2022-09-29T12:57:15.589Z,5.60
2022-09-29T13:00:06.427Z,6.90
2022-09-29T13:03:40.149Z,6.00
2022-09-29T13:06:16.584Z,5.20
2022-09-29T13:08:58.381Z,6.70
2022-09-29T13:11:38.860Z,6.20
2022-09-29T13:14:32.410Z,6.70
2022-09-29T13:17:18.849Z,5.70
2022-09-29T13:20:06.741Z,5.50
2022-09-29T13:22:57.367Z,5.80
2022-09-29T13:25:59.215Z,5.80
2022-09-29T13:28:39.482Z,6.10
2022-09-29T13:31:14.229Z,4.70
2022-09-29T13:33:51.470Z,7.30
2022-09-29T13:36:31.284Z,6.00
2022-09-29T13:39:00.416Z,6.10
2022-09-29T13:41:31.818Z,5.50
2022-09-29T13:44:01.617Z,5.00
2022-09-29T13:46:30.172Z,8.40
2022-09-29T13:49:11.958Z,5.50
2022-09-29T13:51:50.751Z,5.10
2022-09-29T13:54:25.010Z,4.90
2022-09-29T13:57:22.451Z,6.30
2022-09-29T13:59:56.913Z,4.40
2022-09-29T14:02:44.707Z,5.00
2022-09-29T14:05:25.263Z,4.10
2022-09-29T14:07:57.470Z,5.70
2022-09-29T14:10:40.692Z,5.60
2022-09-29T14:13:25.037Z,4.60
2022-09-29T14:16:32.225Z,6.10
2022-09-29T14:19:25.042Z,4.00
2022-09-29T14:21:59.244Z,4.50
2022-09-29T14:24:37.140Z,4.10
2022-09-29T14:27:26.425Z,5.20
2022-09-29T14:30:09.580Z,5.20
2022-09-29T14:33:13.955Z,4.10
2022-09-29T14:36:01.030Z,12.30
2022-09-29T14:39:02.847Z,6.10
2022-09-29T14:41:45.386Z,5.40
2022-09-29T14:44:17.662Z,4.40
2022-09-29T14:51:22.297Z,3.90
2022-09-29T14:54:41.885Z,8.30
2022-09-29T14:57:34.364Z,4.50
2022-09-29T15:00:26.601Z,5.00
2022-09-29T15:03:05.010Z,4.30
2022-09-29T15:05:45.265Z,6.00
2022-09-29T15:08:36.721Z,6.30
2022-09-29T15:11:28.061Z,5.40
2022-09-29T15:13:58.785Z,5.30
2022-09-29T15:17:07.877Z,5.30
2022-09-29T15:20:08.566Z,7.40
2022-09-29T15:23:24.260Z,4.80
2022-09-29T15:28:36.226Z,6.90
2022-09-29T15:31:10.384Z,6.90
2022-09-29T15:33:42.689Z,4.60
2022-09-29T15:36:25.725Z,6.00
2022-09-29T15:39:33.500Z,5.90
2022-09-29T15:42:13.971Z,5.80
2022-09-29T15:44:58.854Z,6.00
2022-09-29T15:47:39.527Z,6.30
2022-09-29T15:50:23.075Z,6.80
2022-09-29T15:52:52.378Z,4.50
2022-09-29T15:55:24.359Z,6.00
2022-09-29T15:57:58.902Z,5.90
2022-09-29T16:00:27.118Z,5.30
2022-09-29T16:03:30.344Z,5.60
2022-09-29T16:06:18.807Z,7.70
2022-09-29T16:08:53.721Z,4.70
2022-09-29T16:11:27.283Z,6.50
2022-09-29T16:14:03.279Z,5.50
2022-09-29T16:16:54.160Z,4.80
2022-09-29T16:19:30.753Z,6.00
2022-09-29T16:22:04.919Z,7.00
2022-09-29T16:24:37.716Z,6.50
2022-09-29T16:27:12.149Z,4.80
2022-09-29T16:29:43.485Z,5.20
2022-09-29T16:32:44.325Z,5.30
2022-09-29T16:35:40.405Z,6.50
2022-09-29T16:38:20.455Z,6.90
2022-09-29T16:40:49.770Z,6.70
2022-09-29T16:43:25.693Z,4.90
2022-09-29T16:45:57.187Z,5.00
2022-09-29T16:48:29.410Z,4.40
2022-09-29T16:51:12.395Z,5.50
2022-09-29T16:53:51.485Z,5.50
2022-09-29T16:56:35.694Z,6.00
2022-09-29T16:59:17.153Z,6.90
2022-09-29T17:01:48.647Z,6.30
2022-09-29T17:04:17.395Z,5.90
2022-09-29T17:06:48.521Z,4.60
2022-09-29T17:09:23.743Z,5.80
2022-09-29T17:11:52.259Z,6.50
2022-09-29T17:14:21.860Z,5.90
2022-09-29T17:16:51.832Z,8.50
2022-09-29T17:19:22.547Z,6.90
2022-09-29T17:21:53.116Z,6.50
2022-09-29T17:24:21.718Z,6.50
2022-09-29T17:27:08.621Z,6.40
2022-09-29T17:29:37.022Z,6.30
2022-09-29T17:32:15.431Z,5.50
2022-09-29T17:34:43.888Z,7.60
2022-09-29T17:37:12.792Z,7.60
2022-09-29T17:39:41.138Z,11.10
2022-09-29T17:42:09.654Z,10.40
2022-09-29T17:44:42.730Z,13.70
2022-09-29T17:47:37.325Z,11.80
2022-09-29T17:50:47.984Z,11.30
2022-09-29T17:53:17.753Z,8.90
2022-09-29T17:55:49.974Z,8.50
2022-09-29T17:58:20.197Z,6.50
2022-09-29T18:00:52.605Z,6.70
2022-09-29T18:03:22.276Z,8.10
2022-09-29T18:05:57.111Z,6.90
2022-09-29T18:08:27.956Z,6.20
2022-09-29T18:10:59.517Z,6.20
2022-09-29T18:13:32.198Z,8.60
2022-09-29T18:16:01.763Z,6.40
2022-09-29T18:18:30.490Z,6.30
2022-09-29T18:20:59.780Z,5.80
2022-09-29T18:23:28.240Z,6.60
2022-09-29T18:25:56.843Z,6.90
2022-09-29T18:28:25.167Z,4.50
2022-09-29T18:31:24.255Z,7.30
2022-09-29T18:33:53.387Z,6.40
2022-09-29T18:36:21.896Z,5.80
2022-09-29T18:38:50.253Z,8.20
2022-09-29T18:41:21.651Z,7.00
2022-09-29T18:43:50.364Z,6.10
2022-09-29T18:46:18.750Z,7.30
2022-09-29T18:48:47.555Z,5.50
2022-09-29T18:51:21.150Z,7.70
2022-09-29T18:53:50.281Z,6.30
2022-09-29T18:56:18.752Z,6.40
2022-09-29T18:58:47.232Z,5.80
2022-09-29T19:01:23.392Z,5.50
2022-09-29T19:03:52.182Z,6.90
2022-09-29T19:06:21.583Z,5.40
2022-09-29T19:08:52.522Z,5.40
2022-09-29T19:11:26.622Z,6.60
2022-09-29T19:13:56.470Z,5.50
2022-09-29T19:16:26.028Z,5.90
2022-09-29T19:18:55.652Z,7.80
2022-09-29T19:21:25.357Z,5.40
2022-09-29T19:23:53.942Z,5.10
2022-09-29T19:26:22.757Z,5.70
2022-09-29T19:28:51.429Z,4.90
2022-09-29T19:31:21.310Z,6.10
2022-09-29T19:33:50.934Z,6.10
2022-09-29T19:36:21.709Z,5.30
2022-09-29T19:38:50.884Z,5.90
2022-09-29T19:41:25.186Z,6.20
2022-09-29T19:43:53.757Z,6.40
2022-09-29T19:46:22.853Z,5.90
2022-09-29T19:48:51.549Z,6.90
2022-09-29T19:51:38.429Z,5.90
2022-09-29T19:54:11.367Z,6.40
2022-09-29T19:56:52.271Z,6.80
2022-09-29T19:59:29.366Z,6.30
2022-09-29T20:01:59.676Z,5.70
2022-09-29T20:04:32.539Z,7.20
2022-09-29T20:07:02.954Z,6.50
2022-09-29T20:09:33.533Z,6.80
2022-09-29T20:12:03.083Z,7.30
2022-09-29T20:14:33.610Z,7.90
2022-09-29T20:17:02.035Z,7.30
2022-09-29T20:19:31.362Z,7.90
2022-09-29T20:24:29.153Z,6.30
2022-09-29T20:26:58.153Z,6.00
2022-09-29T20:29:27.498Z,7.30
2022-09-29T20:31:55.946Z,8.40
2022-09-29T20:34:24.482Z,6.60
2022-09-29T20:36:55.106Z,5.30
2022-09-29T20:39:27.971Z,7.70
2022-09-29T20:41:58.455Z,6.00
2022-09-29T20:44:27.228Z,5.50
2022-09-29T20:46:56.876Z,4.90
2022-09-29T20:49:27.217Z,5.30
2022-09-29T20:51:55.973Z,5.10
2022-09-29T20:54:24.316Z,5.40
2022-09-29T20:56:53.850Z,4.50
2022-09-29T20:59:23.926Z,5.60
2022-09-29T21:01:53.821Z,5.80
2022-09-29T21:04:23.500Z,4.10
2022-09-29T21:06:53.151Z,4.00
2022-09-29T21:09:24.347Z,5.40
2022-09-29T21:11:54.966Z,4.80
2022-09-29T21:14:28.109Z,5.10
2022-09-29T21:16:58.096Z,3.40
2022-09-29T21:19:26.922Z,4.70
2022-09-29T21:21:56.167Z,5.30
2022-09-29T21:24:25.367Z,3.90
2022-09-29T21:26:54.165Z,5.00
2022-09-29T21:29:22.629Z,3.40
2022-09-29T21:31:51.420Z,4.20
2022-09-29T21:34:21.358Z,4.50
2022-09-29T21:36:49.990Z,5.50
2022-09-29T21:39:18.388Z,3.60
2022-09-29T21:41:47.611Z,4.50
2022-09-29T21:44:23.566Z,3.30
2022-09-29T21:46:52.502Z,4.50
2022-09-29T21:49:21.037Z,4.00
2022-09-29T21:51:51.458Z,4.30
2022-09-29T21:54:23.683Z,4.30
2022-09-29T21:56:53.547Z,3.40
2022-09-29T21:59:23.337Z,3.80
2022-09-29T22:01:53.043Z,4.40
2022-09-29T22:04:21.855Z,5.50
2022-09-29T22:06:50.633Z,5.60
2022-09-29T22:09:21.488Z,3.70
2022-09-29T22:11:50.734Z,3.00
2022-09-29T22:14:20.241Z,4.60
2022-09-29T22:16:48.849Z,3.50
2022-09-29T22:19:33.657Z,4.60
2022-09-29T22:22:02.505Z,3.60
2022-09-29T22:24:31.108Z,3.40
2022-09-29T22:26:59.524Z,4.00
2022-09-29T22:29:28.363Z,4.00
2022-09-29T22:31:56.893Z,3.80
2022-09-29T22:34:25.742Z,4.00
2022-09-29T22:36:54.104Z,5.20
2022-09-29T22:39:22.598Z,3.70
2022-09-29T22:41:53.326Z,5.10
2022-09-29T22:44:22.317Z,4.60
2022-09-29T22:46:50.981Z,3.70
2022-09-29T22:49:19.338Z,3.80
2022-09-29T22:51:47.697Z,3.40
2022-09-29T22:54:16.353Z,3.90
2022-09-29T22:56:44.893Z,4.20
2022-09-29T22:59:13.827Z,4.20
2022-09-29T23:01:42.588Z,4.90
2022-09-29T23:06:40.633Z,4.60
2022-09-29T23:09:10.920Z,5.00
2022-09-29T23:11:39.304Z,4.70
2022-09-29T23:14:08.297Z,4.40
2022-09-29T23:16:36.815Z,3.60
2022-09-29T23:19:05.446Z,3.30
2022-09-29T23:21:34.422Z,3.70
2022-09-29T23:24:02.813Z,4.00
2022-09-29T23:26:31.621Z,4.90
2022-09-29T23:29:03.868Z,4.10
2022-09-29T23:31:32.336Z,5.50
2022-09-29T23:34:00.910Z,4.90
2022-09-29T23:36:31.606Z,5.70
2022-09-29T23:39:10.706Z,4.20
2022-09-29T23:44:26.091Z,5.00
2022-09-29T23:46:55.986Z,4.20
2022-09-29T23:49:29.297Z,5.90
2022-09-29T23:52:01.632Z,3.80
2022-09-29T23:54:30.557Z,5.40
2022-09-29T23:56:58.944Z,5.50
2022-09-29T23:59:27.335Z,3.70
